sensor_id;sensor_type;location;lat;lon;timestamp;P1;durP1;ratioP1;P2;durP2;ratioP2
74213;SDS011;62576;55.694;37.494;2023-02-03T00:00:14;37.97;;;12.73;;
74213;SDS011;62576;55.694;37.494;2023-02-03T00:02:46;36.53;;;13.10;;
74213;SDS011;62576;55.694;37.494;2023-02-03T00:05:16;35.17;;;13.02;;
74213;SDS011;62576;55.694;37.494;2023-02-03T00:07:46;40.38;;;13.57;;
74213;SDS011;62576;55.694;37.494;2023-02-03T00:10:17;39.78;;;13.13;;
74213;SDS011;62576;55.694;37.494;2023-02-03T00:12:48;37.95;;;12.65;;
74213;SDS011;62576;55.694;37.494;2023-02-03T00:15:19;33.75;;;12.18;;
74213;SDS011;62576;55.694;37.494;2023-02-03T00:17:52;30.15;;;10.45;;
74213;SDS011;62576;55.694;37.494;2023-02-03T00:20:22;35.85;;;12.77;;
74213;SDS011;62576;55.694;37.494;2023-02-03T00:22:53;33.08;;;11.63;;
74213;SDS011;62576;55.694;37.494;2023-02-03T00:25:23;36.47;;;12.32;;
74213;SDS011;62576;55.694;37.494;2023-02-03T00:27:53;34.88;;;12.90;;
74213;SDS011;62576;55.694;37.494;2023-02-03T00:30:23;36.05;;;13.18;;
74213;SDS011;62576;55.694;37.494;2023-02-03T00:32:55;37.72;;;12.43;;
74213;SDS011;62576;55.694;37.494;2023-02-03T00:35:25;35.35;;;11.95;;
74213;SDS011;62576;55.694;37.494;2023-02-03T00:37:55;37.38;;;13.43;;
74213;SDS011;62576;55.694;37.494;2023-02-03T00:40:26;34.20;;;11.80;;
74213;SDS011;62576;55.694;37.494;2023-02-03T00:42:57;39.08;;;12.60;;
74213;SDS011;62576;55.694;37.494;2023-02-03T00:45:28;36.28;;;13.27;;
74213;SDS011;62576;55.694;37.494;2023-02-03T00:47:59;33.63;;;12.32;;
74213;SDS011;62576;55.694;37.494;2023-02-03T00:50:29;36.55;;;12.10;;
74213;SDS011;62576;55.694;37.494;2023-02-03T00:52:59;37.67;;;13.02;;
74213;SDS011;62576;55.694;37.494;2023-02-03T00:55:29;35.05;;;12.32;;
74213;SDS011;62576;55.694;37.494;2023-02-03T00:57:58;33.78;;;12.00;;
74213;SDS011;62576;55.694;37.494;2023-02-03T01:00:28;39.15;;;12.40;;
74213;SDS011;62576;55.694;37.494;2023-02-03T01:03:00;39.25;;;12.98;;
74213;SDS011;62576;55.694;37.494;2023-02-03T01:05:30;40.65;;;12.95;;
74213;SDS011;62576;55.694;37.494;2023-02-03T01:08:00;37.45;;;13.43;;
74213;SDS011;62576;55.694;37.494;2023-02-03T01:10:31;37.40;;;12.73;;
74213;SDS011;62576;55.694;37.494;2023-02-03T01:13:00;35.42;;;11.95;;
74213;SDS011;62576;55.694;37.494;2023-02-03T01:15:30;39.40;;;13.15;;
74213;SDS011;62576;55.694;37.494;2023-02-03T01:18:02;36.95;;;12.30;;
74213;SDS011;62576;55.694;37.494;2023-02-03T01:20:32;36.75;;;11.32;;
74213;SDS011;62576;55.694;37.494;2023-02-03T01:23:03;38.20;;;13.30;;
74213;SDS011;62576;55.694;37.494;2023-02-03T01:25:33;38.53;;;12.60;;
74213;SDS011;62576;55.694;37.494;2023-02-03T01:28:03;40.97;;;13.23;;
74213;SDS011;62576;55.694;37.494;2023-02-03T01:30:34;38.88;;;13.57;;
74213;SDS011;62576;55.694;37.494;2023-02-03T01:33:05;38.90;;;13.70;;
74213;SDS011;62576;55.694;37.494;2023-02-03T01:35:35;39.10;;;12.05;;
74213;SDS011;62576;55.694;37.494;2023-02-03T01:38:06;39.00;;;13.38;;
74213;SDS011;62576;55.694;37.494;2023-02-03T01:40:40;37.22;;;13.38;;
74213;SDS011;62576;55.694;37.494;2023-02-03T01:45:57;37.17;;;12.60;;
74213;SDS011;62576;55.694;37.494;2023-02-03T01:48:29;43.15;;;13.35;;
74213;SDS011;62576;55.694;37.494;2023-02-03T01:51:01;36.03;;;12.32;;
74213;SDS011;62576;55.694;37.494;2023-02-03T01:53:32;35.88;;;12.75;;
74213;SDS011;62576;55.694;37.494;2023-02-03T01:56:02;36.03;;;12.57;;
74213;SDS011;62576;55.694;37.494;2023-02-03T01:58:35;39.10;;;12.90;;
74213;SDS011;62576;55.694;37.494;2023-02-03T02:01:08;39.90;;;12.50;;
74213;SDS011;62576;55.694;37.494;2023-02-03T02:03:40;38.42;;;13.10;;
74213;SDS011;62576;55.694;37.494;2023-02-03T02:06:14;37.35;;;12.52;;
74213;SDS011;62576;55.694;37.494;2023-02-03T02:08:45;40.83;;;13.00;;
74213;SDS011;62576;55.694;37.494;2023-02-03T02:11:19;35.72;;;12.50;;
74213;SDS011;62576;55.694;37.494;2023-02-03T02:13:50;38.58;;;13.38;;
74213;SDS011;62576;55.694;37.494;2023-02-03T02:16:24;40.47;;;12.73;;
74213;SDS011;62576;55.694;37.494;2023-02-03T02:19:12;39.60;;;12.85;;
74213;SDS011;62576;55.694;37.494;2023-02-03T02:22:03;31.40;;;10.77;;
74213;SDS011;62576;55.694;37.494;2023-02-03T02:24:54;40.58;;;12.13;;
74213;SDS011;62576;55.694;37.494;2023-02-03T02:27:56;37.83;;;12.93;;
74213;SDS011;62576;55.694;37.494;2023-02-03T02:30:48;40.25;;;12.93;;
74213;SDS011;62576;55.694;37.494;2023-02-03T02:33:38;40.38;;;12.57;;
74213;SDS011;62576;55.694;37.494;2023-02-03T02:36:14;40.63;;;13.27;;
74213;SDS011;62576;55.694;37.494;2023-02-03T02:38:56;38.38;;;11.70;;
74213;SDS011;62576;55.694;37.494;2023-02-03T02:41:34;36.78;;;12.30;;
74213;SDS011;62576;55.694;37.494;2023-02-03T02:44:14;37.05;;;11.88;;
74213;SDS011;62576;55.694;37.494;2023-02-03T02:46:45;34.75;;;12.90;;
74213;SDS011;62576;55.694;37.494;2023-02-03T02:49:18;40.17;;;12.98;;
74213;SDS011;62576;55.694;37.494;2023-02-03T02:51:56;37.10;;;12.40;;
74213;SDS011;62576;55.694;37.494;2023-02-03T02:54:32;37.50;;;11.50;;
74213;SDS011;62576;55.694;37.494;2023-02-03T02:57:05;36.50;;;12.00;;
74213;SDS011;62576;55.694;37.494;2023-02-03T02:59:40;38.17;;;12.45;;
74213;SDS011;62576;55.694;37.494;2023-02-03T03:02:10;35.88;;;11.10;;
74213;SDS011;62576;55.694;37.494;2023-02-03T03:04:42;37.70;;;12.60;;
74213;SDS011;62576;55.694;37.494;2023-02-03T03:07:16;35.45;;;12.25;;
74213;SDS011;62576;55.694;37.494;2023-02-03T03:09:49;36.38;;;12.32;;
74213;SDS011;62576;55.694;37.494;2023-02-03T03:14:54;34.60;;;11.82;;
74213;SDS011;62576;55.694;37.494;2023-02-03T03:17:29;35.83;;;12.18;;
74213;SDS011;62576;55.694;37.494;2023-02-03T03:20:03;36.55;;;11.98;;
74213;SDS011;62576;55.694;37.494;2023-02-03T03:22:40;35.08;;;11.95;;
74213;SDS011;62576;55.694;37.494;2023-02-03T03:25:14;34.22;;;12.07;;
74213;SDS011;62576;55.694;37.494;2023-02-03T03:27:47;36.70;;;12.65;;
74213;SDS011;62576;55.694;37.494;2023-02-03T03:30:21;38.40;;;12.65;;
74213;SDS011;62576;55.694;37.494;2023-02-03T03:32:54;34.45;;;11.35;;
74213;SDS011;62576;55.694;37.494;2023-02-03T03:35:29;36.25;;;12.05;;
74213;SDS011;62576;55.694;37.494;2023-02-03T03:38:06;34.80;;;11.32;;
74213;SDS011;62576;55.694;37.494;2023-02-03T03:40:40;31.85;;;10.57;;
74213;SDS011;62576;55.694;37.494;2023-02-03T03:43:18;32.72;;;11.73;;
74213;SDS011;62576;55.694;37.494;2023-02-03T03:45:51;32.13;;;11.23;;
74213;SDS011;62576;55.694;37.494;2023-02-03T03:48:26;37.58;;;12.27;;
74213;SDS011;62576;55.694;37.494;2023-02-03T03:51:03;33.55;;;11.13;;
74213;SDS011;62576;55.694;37.494;2023-02-03T03:53:37;34.80;;;11.52;;
74213;SDS011;62576;55.694;37.494;2023-02-03T03:58:44;33.65;;;11.57;;
74213;SDS011;62576;55.694;37.494;2023-02-03T04:01:17;35.37;;;11.00;;
74213;SDS011;62576;55.694;37.494;2023-02-03T04:03:49;33.25;;;11.95;;
74213;SDS011;62576;55.694;37.494;2023-02-03T04:06:24;32.80;;;11.70;;
74213;SDS011;62576;55.694;37.494;2023-02-03T04:08:54;30.27;;;10.52;;
74213;SDS011;62576;55.694;37.494;2023-02-03T04:11:24;30.90;;;11.25;;
74213;SDS011;62576;55.694;37.494;2023-02-03T04:14:12;36.08;;;11.73;;
74213;SDS011;62576;55.694;37.494;2023-02-03T04:16:43;32.20;;;11.70;;
74213;SDS011;62576;55.694;37.494;2023-02-03T04:19:14;32.78;;;11.40;;
74213;SDS011;62576;55.694;37.494;2023-02-03T04:21:45;33.45;;;11.70;;
74213;SDS011;62576;55.694;37.494;2023-02-03T04:24:15;35.72;;;12.05;;
74213;SDS011;62576;55.694;37.494;2023-02-03T04:26:45;34.00;;;11.60;;
74213;SDS011;62576;55.694;37.494;2023-02-03T04:29:15;31.13;;;11.27;;
74213;SDS011;62576;55.694;37.494;2023-02-03T04:31:43;35.95;;;11.88;;
74213;SDS011;62576;55.694;37.494;2023-02-03T04:34:13;30.08;;;11.20;;
74213;SDS011;62576;55.694;37.494;2023-02-03T04:36:45;33.40;;;12.07;;
74213;SDS011;62576;55.694;37.494;2023-02-03T04:39:15;33.33;;;11.82;;
74213;SDS011;62576;55.694;37.494;2023-02-03T04:41:44;32.75;;;11.52;;
74213;SDS011;62576;55.694;37.494;2023-02-03T04:44:14;33.97;;;11.70;;
74213;SDS011;62576;55.694;37.494;2023-02-03T04:46:46;33.97;;;11.20;;
74213;SDS011;62576;55.694;37.494;2023-02-03T04:49:16;30.55;;;11.10;;
74213;SDS011;62576;55.694;37.494;2023-02-03T04:51:48;37.10;;;12.13;;
74213;SDS011;62576;55.694;37.494;2023-02-03T04:54:19;35.78;;;11.32;;
74213;SDS011;62576;55.694;37.494;2023-02-03T04:56:49;32.70;;;11.23;;
74213;SDS011;62576;55.694;37.494;2023-02-03T04:59:20;34.53;;;10.57;;
74213;SDS011;62576;55.694;37.494;2023-02-03T05:01:50;32.28;;;11.38;;
74213;SDS011;62576;55.694;37.494;2023-02-03T05:04:21;29.15;;;10.52;;
74213;SDS011;62576;55.694;37.494;2023-02-03T05:06:53;33.85;;;11.20;;
74213;SDS011;62576;55.694;37.494;2023-02-03T05:09:24;34.10;;;11.18;;
74213;SDS011;62576;55.694;37.494;2023-02-03T05:11:54;33.55;;;11.48;;
74213;SDS011;62576;55.694;37.494;2023-02-03T05:14:24;30.58;;;11.32;;
74213;SDS011;62576;55.694;37.494;2023-02-03T05:16:54;41.72;;;13.73;;
74213;SDS011;62576;55.694;37.494;2023-02-03T05:19:29;33.60;;;11.50;;
74213;SDS011;62576;55.694;37.494;2023-02-03T05:22:01;30.95;;;10.60;;
74213;SDS011;62576;55.694;37.494;2023-02-03T05:24:31;31.15;;;10.55;;
74213;SDS011;62576;55.694;37.494;2023-02-03T05:27:01;35.88;;;11.20;;
74213;SDS011;62576;55.694;37.494;2023-02-03T05:29:32;31.40;;;11.32;;
74213;SDS011;62576;55.694;37.494;2023-02-03T05:32:02;33.58;;;11.63;;
74213;SDS011;62576;55.694;37.494;2023-02-03T05:34:33;32.45;;;10.30;;
74213;SDS011;62576;55.694;37.494;2023-02-03T05:37:04;34.33;;;11.25;;
74213;SDS011;62576;55.694;37.494;2023-02-03T05:39:35;30.52;;;10.55;;
74213;SDS011;62576;55.694;37.494;2023-02-03T05:42:05;35.83;;;11.75;;
74213;SDS011;62576;55.694;37.494;2023-02-03T05:44:34;31.20;;;10.98;;
74213;SDS011;62576;55.694;37.494;2023-02-03T05:47:04;34.88;;;11.07;;
74213;SDS011;62576;55.694;37.494;2023-02-03T05:49:35;35.15;;;10.88;;
74213;SDS011;62576;55.694;37.494;2023-02-03T05:52:07;37.38;;;10.95;;
74213;SDS011;62576;55.694;37.494;2023-02-03T05:54:37;32.25;;;11.25;;
74213;SDS011;62576;55.694;37.494;2023-02-03T05:57:07;34.65;;;11.27;;
74213;SDS011;62576;55.694;37.494;2023-02-03T05:59:40;39.13;;;12.07;;
74213;SDS011;62576;55.694;37.494;2023-02-03T06:02:11;37.28;;;12.27;;
74213;SDS011;62576;55.694;37.494;2023-02-03T06:04:41;38.72;;;11.98;;
74213;SDS011;62576;55.694;37.494;2023-02-03T06:07:31;33.38;;;11.13;;
74213;SDS011;62576;55.694;37.494;2023-02-03T06:10:01;36.22;;;11.07;;
74213;SDS011;62576;55.694;37.494;2023-02-03T06:12:36;32.80;;;10.65;;
74213;SDS011;62576;55.694;37.494;2023-02-03T06:15:07;32.38;;;10.88;;
74213;SDS011;62576;55.694;37.494;2023-02-03T06:17:42;33.35;;;10.85;;
74213;SDS011;62576;55.694;37.494;2023-02-03T06:20:13;33.10;;;11.07;;
74213;SDS011;62576;55.694;37.494;2023-02-03T06:22:47;32.63;;;11.40;;
74213;SDS011;62576;55.694;37.494;2023-02-03T06:25:31;33.50;;;10.15;;
74213;SDS011;62576;55.694;37.494;2023-02-03T06:28:01;30.85;;;10.02;;
74213;SDS011;62576;55.694;37.494;2023-02-03T06:30:32;31.05;;;10.73;;
74213;SDS011;62576;55.694;37.494;2023-02-03T06:33:03;30.20;;;10.15;;
74213;SDS011;62576;55.694;37.494;2023-02-03T06:35:34;26.23;;;9.13;;
74213;SDS011;62576;55.694;37.494;2023-02-03T06:38:07;32.80;;;11.00;;
74213;SDS011;62576;55.694;37.494;2023-02-03T06:40:40;30.30;;;10.55;;
74213;SDS011;62576;55.694;37.494;2023-02-03T06:43:14;31.33;;;10.23;;
74213;SDS011;62576;55.694;37.494;2023-02-03T06:45:49;30.40;;;10.45;;
74213;SDS011;62576;55.694;37.494;2023-02-03T06:48:20;28.40;;;9.93;;
74213;SDS011;62576;55.694;37.494;2023-02-03T06:50:51;31.17;;;10.35;;
74213;SDS011;62576;55.694;37.494;2023-02-03T06:53:23;28.52;;;10.35;;
74213;SDS011;62576;55.694;37.494;2023-02-03T06:56:02;34.55;;;10.75;;
74213;SDS011;62576;55.694;37.494;2023-02-03T06:58:34;28.98;;;9.45;;
74213;SDS011;62576;55.694;37.494;2023-02-03T07:01:04;33.33;;;11.02;;
74213;SDS011;62576;55.694;37.494;2023-02-03T07:03:37;32.88;;;11.02;;
74213;SDS011;62576;55.694;37.494;2023-02-03T07:06:09;31.80;;;10.45;;
74213;SDS011;62576;55.694;37.494;2023-02-03T07:08:41;34.40;;;10.63;;
74213;SDS011;62576;55.694;37.494;2023-02-03T07:11:14;31.50;;;9.98;;
74213;SDS011;62576;55.694;37.494;2023-02-03T07:13:55;33.58;;;10.13;;
74213;SDS011;62576;55.694;37.494;2023-02-03T07:16:28;33.40;;;10.95;;
74213;SDS011;62576;55.694;37.494;2023-02-03T07:19:06;34.33;;;10.88;;
74213;SDS011;62576;55.694;37.494;2023-02-03T07:21:40;33.25;;;10.48;;
74213;SDS011;62576;55.694;37.494;2023-02-03T07:24:15;29.80;;;10.13;;
74213;SDS011;62576;55.694;37.494;2023-02-03T07:26:48;31.70;;;10.82;;
74213;SDS011;62576;55.694;37.494;2023-02-03T07:29:18;29.48;;;10.55;;
74213;SDS011;62576;55.694;37.494;2023-02-03T07:31:49;29.42;;;10.15;;
74213;SDS011;62576;55.694;37.494;2023-02-03T07:34:23;30.80;;;10.38;;
74213;SDS011;62576;55.694;37.494;2023-02-03T07:36:55;27.88;;;9.48;;
74213;SDS011;62576;55.694;37.494;2023-02-03T07:39:42;26.83;;;8.48;;
74213;SDS011;62576;55.694;37.494;2023-02-03T07:42:13;24.35;;;9.05;;
74213;SDS011;62576;55.694;37.494;2023-02-03T07:44:43;28.05;;;9.23;;
74213;SDS011;62576;55.694;37.494;2023-02-03T07:47:14;23.88;;;9.07;;
74213;SDS011;62576;55.694;37.494;2023-02-03T07:49:46;22.30;;;8.88;;
74213;SDS011;62576;55.694;37.494;2023-02-03T07:52:26;26.65;;;9.30;;
74213;SDS011;62576;55.694;37.494;2023-02-03T07:54:59;25.65;;;9.20;;
74213;SDS011;62576;55.694;37.494;2023-02-03T07:57:32;28.48;;;10.10;;
74213;SDS011;62576;55.694;37.494;2023-02-03T08:00:03;30.75;;;9.98;;
74213;SDS011;62576;55.694;37.494;2023-02-03T08:02:56;27.92;;;9.43;;
74213;SDS011;62576;55.694;37.494;2023-02-03T08:05:32;26.88;;;9.50;;
74213;SDS011;62576;55.694;37.494;2023-02-03T08:08:07;28.52;;;9.82;;
74213;SDS011;62576;55.694;37.494;2023-02-03T08:10:39;32.33;;;10.65;;
74213;SDS011;62576;55.694;37.494;2023-02-03T08:13:09;33.35;;;10.48;;
74213;SDS011;62576;55.694;37.494;2023-02-03T08:15:39;27.92;;;9.55;;
74213;SDS011;62576;55.694;37.494;2023-02-03T08:18:09;36.65;;;11.07;;
74213;SDS011;62576;55.694;37.494;2023-02-03T08:20:40;36.17;;;11.00;;
74213;SDS011;62576;55.694;37.494;2023-02-03T08:23:12;34.10;;;10.98;;
74213;SDS011;62576;55.694;37.494;2023-02-03T08:25:44;36.47;;;11.88;;
74213;SDS011;62576;55.694;37.494;2023-02-03T08:28:19;32.45;;;10.30;;
74213;SDS011;62576;55.694;37.494;2023-02-03T08:30:57;28.20;;;9.30;;
74213;SDS011;62576;55.694;37.494;2023-02-03T08:33:27;31.05;;;10.48;;
74213;SDS011;62576;55.694;37.494;2023-02-03T08:35:58;30.48;;;9.30;;
74213;SDS011;62576;55.694;37.494;2023-02-03T08:38:28;36.78;;;10.52;;
74213;SDS011;62576;55.694;37.494;2023-02-03T08:41:12;31.60;;;11.02;;
74213;SDS011;62576;55.694;37.494;2023-02-03T08:43:53;29.80;;;10.57;;
74213;SDS011;62576;55.694;37.494;2023-02-03T08:49:49;30.70;;;10.43;;
74213;SDS011;62576;55.694;37.494;2023-02-03T08:52:25;35.92;;;10.75;;
74213;SDS011;62576;55.694;37.494;2023-02-03T08:54:56;33.78;;;11.35;;
74213;SDS011;62576;55.694;37.494;2023-02-03T08:57:33;32.13;;;9.85;;
74213;SDS011;62576;55.694;37.494;2023-02-03T09:00:05;31.83;;;9.75;;
74213;SDS011;62576;55.694;37.494;2023-02-03T09:02:38;29.48;;;10.70;;
74213;SDS011;62576;55.694;37.494;2023-02-03T09:05:09;31.80;;;10.10;;
74213;SDS011;62576;55.694;37.494;2023-02-03T09:07:40;29.05;;;9.10;;
74213;SDS011;62576;55.694;37.494;2023-02-03T09:10:12;26.77;;;10.32;;
74213;SDS011;62576;55.694;37.494;2023-02-03T09:12:44;28.83;;;10.05;;
74213;SDS011;62576;55.694;37.494;2023-02-03T09:15:14;30.92;;;10.27;;
74213;SDS011;62576;55.694;37.494;2023-02-03T09:17:45;29.85;;;10.35;;
74213;SDS011;62576;55.694;37.494;2023-02-03T09:20:19;29.73;;;9.93;;
74213;SDS011;62576;55.694;37.494;2023-02-03T09:22:52;30.08;;;9.52;;
74213;SDS011;62576;55.694;37.494;2023-02-03T09:25:23;27.30;;;10.13;;
74213;SDS011;62576;55.694;37.494;2023-02-03T09:27:54;22.98;;;8.63;;
74213;SDS011;62576;55.694;37.494;2023-02-03T09:30:24;27.60;;;9.93;;
74213;SDS011;62576;55.694;37.494;2023-02-03T09:32:54;26.67;;;9.57;;
74213;SDS011;62576;55.694;37.494;2023-02-03T09:35:26;24.77;;;9.48;;
74213;SDS011;62576;55.694;37.494;2023-02-03T09:37:57;24.17;;;9.50;;
74213;SDS011;62576;55.694;37.494;2023-02-03T09:40:29;25.20;;;9.05;;
74213;SDS011;62576;55.694;37.494;2023-02-03T09:46:10;25.27;;;8.77;;
74213;SDS011;62576;55.694;37.494;2023-02-03T09:48:46;26.17;;;9.10;;
74213;SDS011;62576;55.694;37.494;2023-02-03T09:51:21;24.75;;;9.20;;
74213;SDS011;62576;55.694;37.494;2023-02-03T09:54:12;26.90;;;9.23;;
74213;SDS011;62576;55.694;37.494;2023-02-03T10:00:12;23.75;;;8.93;;
74213;SDS011;62576;55.694;37.494;2023-02-03T10:02:54;25.55;;;8.40;;
74213;SDS011;62576;55.694;37.494;2023-02-03T10:05:29;26.45;;;9.77;;
74213;SDS011;62576;55.694;37.494;2023-02-03T10:08:14;23.60;;;8.77;;
74213;SDS011;62576;55.694;37.494;2023-02-03T10:10:57;23.48;;;8.77;;
74213;SDS011;62576;55.694;37.494;2023-02-03T10:13:44;27.95;;;9.05;;
74213;SDS011;62576;55.694;37.494;2023-02-03T10:19:37;24.55;;;9.82;;
74213;SDS011;62576;55.694;37.494;2023-02-03T10:22:15;26.52;;;9.02;;
74213;SDS011;62576;55.694;37.494;2023-02-03T10:24:51;21.75;;;8.43;;
74213;SDS011;62576;55.694;37.494;2023-02-03T10:27:25;25.75;;;9.95;;
74213;SDS011;62576;55.694;37.494;2023-02-03T10:29:59;22.17;;;8.48;;
74213;SDS011;62576;55.694;37.494;2023-02-03T10:35:42;22.60;;;9.15;;
74213;SDS011;62576;55.694;37.494;2023-02-03T10:38:20;23.88;;;9.40;;
74213;SDS011;62576;55.694;37.494;2023-02-03T10:41:00;23.83;;;8.85;;
74213;SDS011;62576;55.694;37.494;2023-02-03T10:43:31;24.08;;;8.77;;
74213;SDS011;62576;55.694;37.494;2023-02-03T10:46:26;22.48;;;8.95;;
74213;SDS011;62576;55.694;37.494;2023-02-03T10:48:59;25.42;;;8.98;;
74213;SDS011;62576;55.694;37.494;2023-02-03T10:51:33;25.85;;;10.02;;
74213;SDS011;62576;55.694;37.494;2023-02-03T10:54:10;22.98;;;8.95;;
74213;SDS011;62576;55.694;37.494;2023-02-03T10:57:00;23.98;;;9.30;;
74213;SDS011;62576;55.694;37.494;2023-02-03T10:59:34;22.55;;;9.20;;
74213;SDS011;62576;55.694;37.494;2023-02-03T11:02:13;24.63;;;9.07;;
74213;SDS011;62576;55.694;37.494;2023-02-03T11:07:41;21.70;;;8.27;;
74213;SDS011;62576;55.694;37.494;2023-02-03T11:10:26;21.90;;;8.88;;
74213;SDS011;62576;55.694;37.494;2023-02-03T11:15:53;23.50;;;8.95;;
74213;SDS011;62576;55.694;37.494;2023-02-03T11:18:29;21.52;;;8.15;;
74213;SDS011;62576;55.694;37.494;2023-02-03T11:21:15;22.20;;;8.88;;
74213;SDS011;62576;55.694;37.494;2023-02-03T11:23:48;22.75;;;8.05;;
74213;SDS011;62576;55.694;37.494;2023-02-03T11:26:23;22.92;;;8.18;;
74213;SDS011;62576;55.694;37.494;2023-02-03T11:28:57;23.88;;;8.25;;
74213;SDS011;62576;55.694;37.494;2023-02-03T11:31:26;24.52;;;9.20;;
74213;SDS011;62576;55.694;37.494;2023-02-03T11:33:59;20.75;;;7.60;;
74213;SDS011;62576;55.694;37.494;2023-02-03T11:36:33;22.30;;;8.02;;
74213;SDS011;62576;55.694;37.494;2023-02-03T11:41:55;20.05;;;7.63;;
74213;SDS011;62576;55.694;37.494;2023-02-03T11:44:26;21.83;;;7.65;;
74213;SDS011;62576;55.694;37.494;2023-02-03T11:47:01;19.38;;;7.75;;
74213;SDS011;62576;55.694;37.494;2023-02-03T11:49:54;21.35;;;7.68;;
74213;SDS011;62576;55.694;37.494;2023-02-03T11:52:52;19.80;;;7.50;;
74213;SDS011;62576;55.694;37.494;2023-02-03T11:55:37;23.55;;;7.82;;
74213;SDS011;62576;55.694;37.494;2023-02-03T11:58:29;19.33;;;8.00;;
74213;SDS011;62576;55.694;37.494;2023-02-03T12:01:16;20.92;;;7.43;;
74213;SDS011;62576;55.694;37.494;2023-02-03T12:04:03;20.02;;;7.75;;
74213;SDS011;62576;55.694;37.494;2023-02-03T12:06:55;18.67;;;7.63;;
74213;SDS011;62576;55.694;37.494;2023-02-03T12:09:37;19.13;;;7.88;;
74213;SDS011;62576;55.694;37.494;2023-02-03T12:12:27;18.85;;;7.47;;
74213;SDS011;62576;55.694;37.494;2023-02-03T12:15:15;17.20;;;6.72;;
74213;SDS011;62576;55.694;37.494;2023-02-03T12:21:05;20.45;;;7.70;;
74213;SDS011;62576;55.694;37.494;2023-02-03T12:23:51;17.75;;;6.68;;
74213;SDS011;62576;55.694;37.494;2023-02-03T12:26:32;17.40;;;7.28;;
74213;SDS011;62576;55.694;37.494;2023-02-03T12:29:12;17.25;;;7.10;;
74213;SDS011;62576;55.694;37.494;2023-02-03T12:31:44;17.65;;;7.32;;
74213;SDS011;62576;55.694;37.494;2023-02-03T12:34:21;17.20;;;6.90;;
74213;SDS011;62576;55.694;37.494;2023-02-03T12:36:57;17.40;;;7.60;;
74213;SDS011;62576;55.694;37.494;2023-02-03T12:39:35;17.58;;;6.70;;
74213;SDS011;62576;55.694;37.494;2023-02-03T12:42:16;18.90;;;6.88;;
74213;SDS011;62576;55.694;37.494;2023-02-03T12:44:51;21.42;;;7.60;;
74213;SDS011;62576;55.694;37.494;2023-02-03T12:47:26;14.95;;;6.75;;
74213;SDS011;62576;55.694;37.494;2023-02-03T12:50:02;17.08;;;7.10;;
74213;SDS011;62576;55.694;37.494;2023-02-03T12:52:39;14.57;;;6.13;;
74213;SDS011;62576;55.694;37.494;2023-02-03T12:55:16;18.10;;;7.65;;
74213;SDS011;62576;55.694;37.494;2023-02-03T12:57:56;20.40;;;7.60;;
74213;SDS011;62576;55.694;37.494;2023-02-03T13:00:33;19.30;;;7.95;;
74213;SDS011;62576;55.694;37.494;2023-02-03T13:03:12;17.50;;;6.40;;
74213;SDS011;62576;55.694;37.494;2023-02-03T13:05:53;18.23;;;7.30;;
74213;SDS011;62576;55.694;37.494;2023-02-03T13:08:30;17.92;;;7.07;;
74213;SDS011;62576;55.694;37.494;2023-02-03T13:11:09;20.33;;;8.02;;
74213;SDS011;62576;55.694;37.494;2023-02-03T13:13:46;17.42;;;7.22;;
74213;SDS011;62576;55.694;37.494;2023-02-03T13:16:22;21.23;;;7.55;;
74213;SDS011;62576;55.694;37.494;2023-02-03T13:18:57;19.50;;;7.38;;
74213;SDS011;62576;55.694;37.494;2023-02-03T13:21:31;18.77;;;7.15;;
74213;SDS011;62576;55.694;37.494;2023-02-03T13:24:02;17.17;;;7.32;;
74213;SDS011;62576;55.694;37.494;2023-02-03T13:26:42;18.40;;;7.57;;
74213;SDS011;62576;55.694;37.494;2023-02-03T13:29:40;21.58;;;7.57;;
74213;SDS011;62576;55.694;37.494;2023-02-03T13:32:23;20.40;;;7.13;;
74213;SDS011;62576;55.694;37.494;2023-02-03T13:41:05;19.02;;;7.95;;
74213;SDS011;62576;55.694;37.494;2023-02-03T13:43:40;21.33;;;8.20;;
74213;SDS011;62576;55.694;37.494;2023-02-03T13:46:19;19.30;;;8.05;;
74213;SDS011;62576;55.694;37.494;2023-02-03T13:48:53;21.65;;;8.30;;
74213;SDS011;62576;55.694;37.494;2023-02-03T13:51:27;21.33;;;7.88;;
74213;SDS011;62576;55.694;37.494;2023-02-03T13:54:03;19.83;;;7.20;;
74213;SDS011;62576;55.694;37.494;2023-02-03T13:56:36;16.42;;;6.63;;
74213;SDS011;62576;55.694;37.494;2023-02-03T13:59:25;22.33;;;7.80;;
74213;SDS011;62576;55.694;37.494;2023-02-03T14:11:40;21.67;;;7.22;;
74213;SDS011;62576;55.694;37.494;2023-02-03T14:20:41;20.02;;;7.25;;
74213;SDS011;62576;55.694;37.494;2023-02-03T14:23:34;23.50;;;8.70;;
74213;SDS011;62576;55.694;37.494;2023-02-03T14:26:14;21.27;;;7.35;;
74213;SDS011;62576;55.694;37.494;2023-02-03T14:28:45;20.85;;;8.00;;
74213;SDS011;62576;55.694;37.494;2023-02-03T14:31:18;20.75;;;7.65;;
74213;SDS011;62576;55.694;37.494;2023-02-03T14:33:52;21.10;;;8.30;;
74213;SDS011;62576;55.694;37.494;2023-02-03T14:48:50;23.38;;;8.20;;
74213;SDS011;62576;55.694;37.494;2023-02-03T14:51:39;23.35;;;8.50;;
74213;SDS011;62576;55.694;37.494;2023-02-03T14:54:37;23.85;;;8.18;;
74213;SDS011;62576;55.694;37.494;2023-02-03T14:57:28;22.10;;;8.23;;
74213;SDS011;62576;55.694;37.494;2023-02-03T15:00:24;23.08;;;8.80;;
74213;SDS011;62576;55.694;37.494;2023-02-03T15:03:21;20.55;;;8.13;;
74213;SDS011;62576;55.694;37.494;2023-02-03T15:05:54;21.55;;;8.70;;
74213;SDS011;62576;55.694;37.494;2023-02-03T15:11:28;22.10;;;8.57;;
74213;SDS011;62576;55.694;37.494;2023-02-03T15:16:52;22.05;;;8.43;;
74213;SDS011;62576;55.694;37.494;2023-02-03T15:19:30;19.80;;;8.50;;
74213;SDS011;62576;55.694;37.494;2023-02-03T15:22:16;20.75;;;8.48;;
74213;SDS011;62576;55.694;37.494;2023-02-03T15:24:54;22.33;;;8.88;;
74213;SDS011;62576;55.694;37.494;2023-02-03T15:27:31;19.85;;;7.10;;
74213;SDS011;62576;55.694;37.494;2023-02-03T15:32:58;21.73;;;7.97;;
74213;SDS011;62576;55.694;37.494;2023-02-03T15:35:35;19.92;;;8.38;;
74213;SDS011;62576;55.694;37.494;2023-02-03T15:38:12;21.48;;;8.13;;
74213;SDS011;62576;55.694;37.494;2023-02-03T15:40:49;19.38;;;8.02;;
74213;SDS011;62576;55.694;37.494;2023-02-03T15:43:26;19.95;;;7.53;;
74213;SDS011;62576;55.694;37.494;2023-02-03T15:46:02;19.35;;;7.95;;
74213;SDS011;62576;55.694;37.494;2023-02-03T15:48:45;19.92;;;8.15;;
74213;SDS011;62576;55.694;37.494;2023-02-03T15:51:25;23.20;;;9.20;;
74213;SDS011;62576;55.694;37.494;2023-02-03T15:54:06;15.48;;;6.40;;
74213;SDS011;62576;55.694;37.494;2023-02-03T15:56:47;17.38;;;6.80;;
74213;SDS011;62576;55.694;37.494;2023-02-03T15:59:23;19.35;;;7.60;;
74213;SDS011;62576;55.694;37.494;2023-02-03T16:01:59;19.88;;;7.43;;
74213;SDS011;62576;55.694;37.494;2023-02-03T16:04:35;22.40;;;7.72;;
74213;SDS011;62576;55.694;37.494;2023-02-03T16:07:11;19.10;;;8.40;;
74213;SDS011;62576;55.694;37.494;2023-02-03T16:09:47;20.20;;;7.80;;
74213;SDS011;62576;55.694;37.494;2023-02-03T16:12:26;19.05;;;6.95;;
74213;SDS011;62576;55.694;37.494;2023-02-03T16:14:59;20.45;;;7.68;;
74213;SDS011;62576;55.694;37.494;2023-02-03T16:17:31;20.77;;;7.72;;